createdAt,value
2018-12-26T00:10:36.257Z,9.63
2018-12-26T00:13:05.713Z,10.17
2018-12-26T00:16:07.545Z,11.00
2018-12-26T00:18:56.965Z,10.67
2018-12-26T00:24:59.574Z,10.43
2018-12-26T00:30:45.241Z,10.43
2018-12-26T00:33:41.689Z,10.90
2018-12-26T00:36:14.778Z,12.03
2018-12-26T00:38:44.228Z,10.60
2018-12-26T00:41:15.821Z,11.53
2018-12-26T00:44:00.337Z,11.90
2018-12-26T00:46:30.231Z,10.30
2018-12-26T00:49:04.392Z,9.67
2018-12-26T00:51:43.631Z,9.90
2018-12-26T00:54:42.048Z,8.57
2018-12-26T00:57:55.933Z,8.20
2018-12-26T01:00:27.179Z,8.70
2018-12-26T01:02:57.935Z,7.83
2018-12-26T01:05:45.956Z,8.73
2018-12-26T01:08:14.832Z,8.40
2018-12-26T01:15:14.155Z,8.80
2018-12-26T01:18:12.619Z,8.77
2018-12-26T01:20:42.110Z,8.80
2018-12-26T01:23:11.210Z,9.10
2018-12-26T01:25:40.173Z,9.63
2018-12-26T01:28:09.406Z,9.50
2018-12-26T01:30:38.429Z,10.17
2018-12-26T01:33:07.945Z,9.33
2018-12-26T01:35:37.258Z,10.23
2018-12-26T01:38:06.126Z,10.63
2018-12-26T01:40:35.011Z,10.50
2018-12-26T01:43:05.230Z,10.10
2018-12-26T01:45:35.752Z,9.87
2018-12-26T01:48:05.030Z,9.93
2018-12-26T01:50:34.496Z,9.63
2018-12-26T01:53:04.909Z,8.73
2018-12-26T01:55:34.037Z,9.20
2018-12-26T01:58:04.071Z,8.20
2018-12-26T02:00:33.326Z,8.37
2018-12-26T02:03:02.422Z,7.93
2018-12-26T02:05:31.358Z,7.53
2018-12-26T02:08:00.214Z,7.50
2018-12-26T02:10:31.929Z,7.67
2018-12-26T02:13:03.867Z,7.93
2018-12-26T02:15:37.011Z,7.27
2018-12-26T02:18:06.003Z,7.70
2018-12-26T02:20:35.484Z,7.80
2018-12-26T02:23:06.972Z,7.93
2018-12-26T02:25:36.035Z,7.33
2018-12-26T02:28:05.037Z,7.60
2018-12-26T02:30:37.062Z,7.70
2018-12-26T02:33:06.335Z,7.63
2018-12-26T02:35:41.514Z,7.70
2018-12-26T02:38:10.440Z,7.70
2018-12-26T02:40:44.205Z,7.63
2018-12-26T02:43:19.234Z,7.83
2018-12-26T02:45:48.213Z,8.53
2018-12-26T02:48:17.516Z,7.73
2018-12-26T02:50:46.900Z,7.83
2018-12-26T02:53:16.395Z,7.57
2018-12-26T02:55:48.237Z,6.73
2018-12-26T02:58:17.650Z,7.60
2018-12-26T03:00:46.642Z,7.00
2018-12-26T03:03:16.164Z,7.03
2018-12-26T03:05:45.357Z,6.80
2018-12-26T03:08:14.548Z,6.60
2018-12-26T03:10:44.947Z,6.67
2018-12-26T03:13:14.193Z,6.50
2018-12-26T03:15:49.391Z,6.87
2018-12-26T03:18:18.766Z,6.63
2018-12-26T03:20:50.593Z,6.97
2018-12-26T03:23:19.559Z,7.10
2018-12-26T03:25:50.844Z,8.03
2018-12-26T03:28:23.994Z,6.93
2018-12-26T03:31:14.659Z,7.57
2018-12-26T03:33:47.205Z,7.83
2018-12-26T03:36:22.856Z,7.67
2018-12-26T03:39:00.014Z,7.47
2018-12-26T03:41:29.854Z,6.87
2018-12-26T03:43:59.056Z,6.57
2018-12-26T03:47:11.722Z,7.03
2018-12-26T03:50:17.737Z,7.40
2018-12-26T03:52:50.153Z,7.67
2018-12-26T03:55:19.848Z,7.63
2018-12-26T03:58:59.833Z,7.40
2018-12-26T04:01:36.036Z,7.10
2018-12-26T04:04:11.189Z,7.43
2018-12-26T04:06:40.377Z,7.30
2018-12-26T04:09:09.633Z,7.07
2018-12-26T04:11:38.870Z,7.43
2018-12-26T04:14:08.261Z,7.13
2018-12-26T04:16:39.135Z,6.97
2018-12-26T04:19:08.529Z,7.50
2018-12-26T04:21:38.255Z,8.30
2018-12-26T04:24:07.435Z,7.70
2018-12-26T04:26:41.690Z,7.53
2018-12-26T04:29:10.300Z,7.23
2018-12-26T04:31:39.304Z,6.60
2018-12-26T04:34:11.236Z,7.40
2018-12-26T04:36:40.596Z,6.97
2018-12-26T04:39:12.870Z,6.60
2018-12-26T04:41:42.361Z,6.97
2018-12-26T04:44:15.119Z,7.30
2018-12-26T04:46:44.534Z,6.97
2018-12-26T04:49:44.861Z,7.23
2018-12-26T04:52:14.430Z,6.23
2018-12-26T04:54:56.427Z,6.60
2018-12-26T04:57:28.648Z,6.63
2018-12-26T04:59:57.922Z,6.53
2018-12-26T05:02:30.242Z,6.00
2018-12-26T05:05:00.168Z,7.30
2018-12-26T05:07:29.921Z,6.93
2018-12-26T05:10:02.738Z,6.10
2018-12-26T05:12:35.031Z,6.30
2018-12-26T05:15:08.308Z,6.40
2018-12-26T05:17:40.369Z,6.23
2018-12-26T05:20:09.237Z,6.93
2018-12-26T05:22:38.849Z,6.97
2018-12-26T05:25:08.075Z,6.97
2018-12-26T05:27:52.191Z,7.00
2018-12-26T05:30:21.150Z,6.30
2018-12-26T05:32:55.594Z,7.67
2018-12-26T05:35:44.771Z,7.90
2018-12-26T05:38:33.342Z,7.90
2018-12-26T05:41:05.628Z,6.40
2018-12-26T05:43:35.306Z,7.23
2018-12-26T05:46:20.394Z,9.20
2018-12-26T05:49:46.842Z,9.70
2018-12-26T05:52:46.140Z,10.83
2018-12-26T05:55:15.407Z,11.63
2018-12-26T05:57:44.423Z,12.00
2018-12-26T06:00:16.241Z,13.00
2018-12-26T06:02:45.368Z,13.20
2018-12-26T06:05:14.531Z,11.60
2018-12-26T06:07:46.661Z,11.80
2018-12-26T06:10:21.517Z,12.40
2018-12-26T06:12:51.173Z,13.20
2018-12-26T06:15:20.373Z,11.97
2018-12-26T06:17:56.249Z,11.13
2018-12-26T06:20:29.298Z,11.53
2018-12-26T06:22:58.975Z,11.97
2018-12-26T06:25:28.024Z,14.23
2018-12-26T06:28:00.029Z,13.97
2018-12-26T06:30:28.947Z,14.80
2018-12-26T06:32:58.359Z,15.37
2018-12-26T06:35:28.050Z,18.93
2018-12-26T06:38:01.514Z,18.63
2018-12-26T06:40:31.023Z,18.80
2018-12-26T06:43:09.298Z,17.03
2018-12-26T06:45:44.386Z,16.20
2018-12-26T06:48:13.370Z,17.00
2018-12-26T06:50:42.313Z,16.37
2018-12-26T06:53:20.106Z,16.20
2018-12-26T06:55:49.212Z,15.30
2018-12-26T06:58:18.470Z,14.00
2018-12-26T07:00:47.819Z,15.27
2018-12-26T07:03:16.819Z,13.83
2018-12-26T07:05:54.867Z,13.73
2018-12-26T07:08:29.943Z,13.27
2018-12-26T07:11:03.306Z,14.17
2018-12-26T07:13:32.210Z,11.67
2018-12-26T07:16:01.268Z,13.13
2018-12-26T07:18:34.317Z,12.33
2018-12-26T07:21:03.299Z,11.03
2018-12-26T07:23:32.277Z,11.27
2018-12-26T07:26:01.645Z,11.97
2018-12-26T07:28:30.993Z,12.17
2018-12-26T07:31:03.206Z,12.33
2018-12-26T07:33:32.658Z,11.90
2018-12-26T07:36:04.446Z,11.23
2018-12-26T07:38:41.916Z,11.23
2018-12-26T07:41:11.113Z,13.37
2018-12-26T07:43:43.241Z,12.57
2018-12-26T07:46:12.474Z,12.53
2018-12-26T07:48:42.165Z,13.20
2018-12-26T07:51:11.290Z,14.30
2018-12-26T07:53:41.168Z,14.13
2018-12-26T07:56:10.863Z,15.00
2018-12-26T07:58:44.355Z,14.63
2018-12-26T08:01:13.613Z,13.43
2018-12-26T08:03:45.605Z,19.15
2018-12-26T08:06:15.166Z,14.73
2018-12-26T08:08:45.212Z,14.47
2018-12-26T08:11:14.134Z,15.50
2018-12-26T08:13:43.909Z,15.43
2018-12-26T08:16:13.423Z,16.30
2018-12-26T08:18:45.501Z,14.20
2018-12-26T08:21:14.833Z,15.03
2018-12-26T08:23:44.460Z,14.23
2018-12-26T08:26:16.548Z,14.53
2018-12-26T08:28:45.496Z,14.83
2018-12-26T08:31:14.867Z,14.57
2018-12-26T08:33:47.655Z,14.00
2018-12-26T08:36:16.754Z,14.57
2018-12-26T08:38:45.834Z,13.83
2018-12-26T08:41:18.687Z,14.20
2018-12-26T08:43:50.829Z,14.67
2018-12-26T08:46:19.878Z,13.63
2018-12-26T08:48:48.797Z,13.33
2018-12-26T08:51:17.849Z,15.20
2018-12-26T08:53:46.868Z,14.70
2018-12-26T08:56:15.917Z,15.00
2018-12-26T08:58:50.787Z,14.00
2018-12-26T09:01:19.964Z,15.43
2018-12-26T09:03:48.861Z,15.43
2018-12-26T09:06:20.633Z,15.20
2018-12-26T09:08:49.460Z,14.47
2018-12-26T09:11:21.173Z,15.03
2018-12-26T09:13:50.056Z,16.30
2018-12-26T09:16:22.760Z,13.70
2018-12-26T09:18:51.689Z,14.83
2018-12-26T09:21:20.680Z,14.50
2018-12-26T09:23:49.631Z,14.93
2018-12-26T09:26:18.522Z,15.03
2018-12-26T09:28:50.584Z,14.13
2018-12-26T09:31:22.258Z,13.77
2018-12-26T09:33:57.069Z,12.63
2018-12-26T09:36:26.261Z,13.13
2018-12-26T09:38:55.114Z,12.87
2018-12-26T09:41:24.018Z,11.57
2018-12-26T09:43:53.498Z,12.13
2018-12-26T09:46:25.429Z,11.47
2018-12-26T09:48:54.348Z,11.13
2018-12-26T09:51:26.700Z,12.70
2018-12-26T09:53:58.661Z,12.07
2018-12-26T09:56:30.854Z,11.63
2018-12-26T09:58:59.849Z,12.90
2018-12-26T10:01:29.337Z,12.97
2018-12-26T10:04:01.622Z,16.70
2018-12-26T10:06:34.145Z,11.47
2018-12-26T10:09:03.773Z,11.77
2018-12-26T10:11:39.209Z,11.63
2018-12-26T10:14:11.507Z,11.70
2018-12-26T10:16:43.872Z,11.37
2018-12-26T10:19:16.004Z,14.40
2018-12-26T10:21:45.257Z,15.87
2018-12-26T10:24:18.543Z,10.90
2018-12-26T10:26:45.022Z,11.23
2018-12-26T10:29:14.858Z,10.53
2018-12-26T10:31:46.732Z,11.37
2018-12-26T10:34:18.546Z,11.50
2018-12-26T10:36:50.293Z,10.90
2018-12-26T10:39:19.129Z,24.00
2018-12-26T10:41:51.016Z,12.37
2018-12-26T10:44:22.710Z,13.07
2018-12-26T10:46:54.814Z,13.00
2018-12-26T10:49:27.005Z,11.83
2018-12-26T10:52:03.227Z,11.57
2018-12-26T10:54:32.736Z,11.93
2018-12-26T10:58:18.982Z,12.13
2018-12-26T11:00:56.537Z,12.23
2018-12-26T11:03:25.549Z,12.90
2018-12-26T11:05:54.526Z,12.23
2018-12-26T11:08:23.649Z,12.83
2018-12-26T11:10:55.800Z,12.67
2018-12-26T11:13:33.987Z,12.83
2018-12-26T11:16:03.317Z,13.13
2018-12-26T11:18:32.321Z,12.43
2018-12-26T11:21:07.400Z,13.17
2018-12-26T11:23:36.297Z,23.50
2018-12-26T11:26:05.209Z,15.83
2018-12-26T11:28:34.051Z,14.23
2018-12-26T11:31:02.935Z,13.33
2018-12-26T11:33:37.113Z,12.57
2018-12-26T11:36:05.984Z,16.13
2018-12-26T11:38:35.421Z,17.63
2018-12-26T11:41:05.255Z,13.57
2018-12-26T11:43:34.737Z,12.00
2018-12-26T11:46:03.717Z,13.40
2018-12-26T11:48:36.206Z,31.93
2018-12-26T11:51:08.169Z,13.73
2018-12-26T11:53:36.981Z,13.60
2018-12-26T11:56:08.717Z,13.00
2018-12-26T11:58:37.871Z,12.73
2018-12-26T12:01:07.223Z,29.43
2018-12-26T12:03:40.259Z,18.03
2018-12-26T12:06:12.333Z,17.57
2018-12-26T12:08:41.415Z,16.87
2018-12-26T12:11:10.530Z,14.53
2018-12-26T12:13:42.728Z,14.97
2018-12-26T12:16:14.577Z,15.80
2018-12-26T12:18:43.587Z,16.43
2018-12-26T12:21:18.845Z,16.43
2018-12-26T12:23:47.917Z,16.40
2018-12-26T12:26:17.019Z,15.93
2018-12-26T12:28:46.473Z,15.90
2018-12-26T12:31:32.577Z,14.87
2018-12-26T12:34:01.741Z,15.53
2018-12-26T12:37:02.250Z,14.93
2018-12-26T12:39:44.500Z,14.87
2018-12-26T12:42:15.814Z,15.87
2018-12-26T12:44:48.163Z,14.93
2018-12-26T12:47:17.221Z,14.90
2018-12-26T12:49:48.886Z,17.17
2018-12-26T12:52:21.238Z,18.83
2018-12-26T12:54:50.795Z,17.13
2018-12-26T12:57:19.978Z,17.50
2018-12-26T12:59:51.535Z,17.33
2018-12-26T13:02:20.520Z,17.83
2018-12-26T13:04:49.538Z,17.43
2018-12-26T13:07:18.744Z,16.23
2018-12-26T13:09:48.373Z,17.90
2018-12-26T13:12:17.313Z,18.40
2018-12-26T13:14:51.294Z,17.60
2018-12-26T13:19:59.383Z,18.73
2018-12-26T13:22:30.277Z,20.50
2018-12-26T13:25:00.265Z,19.33
2018-12-26T13:27:32.370Z,17.17
2018-12-26T13:30:05.389Z,17.50
2018-12-26T13:32:49.853Z,17.83
2018-12-26T13:35:19.285Z,16.37
2018-12-26T13:38:35.296Z,17.57
2018-12-26T13:41:05.896Z,26.57
2018-12-26T13:44:00.269Z,16.70
2018-12-26T13:46:37.437Z,19.43
2018-12-26T13:52:46.155Z,18.60
2018-12-26T13:55:14.996Z,18.87
2018-12-26T13:57:43.954Z,56.13
2018-12-26T14:00:13.168Z,21.33
2018-12-26T14:02:42.240Z,19.00
2018-12-26T14:05:11.061Z,20.13
2018-12-26T14:07:40.261Z,20.43
2018-12-26T14:10:12.921Z,21.27
2018-12-26T14:12:44.763Z,19.53
2018-12-26T14:15:23.111Z,18.33
2018-12-26T14:17:52.384Z,23.67
2018-12-26T14:20:21.538Z,27.27
2018-12-26T14:22:50.535Z,22.33
2018-12-26T14:25:19.473Z,19.27
2018-12-26T14:27:48.388Z,19.23
2018-12-26T14:30:20.378Z,20.10
2018-12-26T14:32:49.552Z,20.07
2018-12-26T14:35:21.488Z,18.60
2018-12-26T14:37:50.334Z,19.90
2018-12-26T14:40:20.875Z,19.40
2018-12-26T14:42:49.833Z,20.13
2018-12-26T14:45:18.817Z,19.13
2018-12-26T14:47:47.761Z,19.87
2018-12-26T14:50:19.777Z,18.80
2018-12-26T14:52:54.879Z,18.97
2018-12-26T14:55:24.118Z,18.77
2018-12-26T14:57:53.053Z,18.23
2018-12-26T15:00:22.544Z,19.37
2018-12-26T15:02:54.564Z,19.93
2018-12-26T15:05:23.670Z,19.67
2018-12-26T15:07:52.797Z,18.90
2018-12-26T15:10:25.879Z,18.97
2018-12-26T15:12:58.234Z,19.73
2018-12-26T15:15:30.713Z,18.20
2018-12-26T15:18:06.070Z,18.17
2018-12-26T15:20:35.813Z,17.43
2018-12-26T15:23:10.916Z,18.13
2018-12-26T15:25:43.461Z,16.87
2018-12-26T15:28:15.574Z,17.10
2018-12-26T15:30:47.813Z,16.20
2018-12-26T15:33:19.624Z,17.63
2018-12-26T15:35:48.586Z,18.20
2018-12-26T15:38:17.574Z,18.13
2018-12-26T15:40:46.540Z,18.07
2018-12-26T15:43:15.621Z,18.10
2018-12-26T15:45:44.725Z,28.00
2018-12-26T15:48:13.805Z,22.53
2018-12-26T15:50:42.858Z,20.10
2018-12-26T15:53:15.136Z,22.70
2018-12-26T15:55:44.328Z,24.03
2018-12-26T15:58:16.479Z,22.57
2018-12-26T16:00:45.908Z,20.03
2018-12-26T16:03:15.326Z,19.27
2018-12-26T16:05:47.382Z,18.40
2018-12-26T16:08:19.455Z,19.43
2018-12-26T16:10:51.334Z,19.23
2018-12-26T16:13:20.819Z,17.97
2018-12-26T16:15:59.226Z,17.67
2018-12-26T16:18:32.213Z,19.23
2018-12-26T16:21:01.192Z,19.63
2018-12-26T16:23:30.160Z,20.83
2018-12-26T16:26:03.769Z,19.73
2018-12-26T16:28:33.161Z,20.23
2018-12-26T16:31:02.294Z,20.00
2018-12-26T16:33:34.199Z,20.17
2018-12-26T16:36:06.129Z,19.53
2018-12-26T16:38:35.583Z,19.40
2018-12-26T16:41:04.569Z,19.50
2018-12-26T16:43:33.477Z,20.53
2018-12-26T16:46:05.653Z,19.77
2018-12-26T16:48:40.797Z,19.90
2018-12-26T16:51:09.835Z,19.50
2018-12-26T16:53:40.693Z,19.47
2018-12-26T16:56:09.891Z,19.43
2018-12-26T16:58:44.546Z,20.40
2018-12-26T17:01:13.377Z,19.40
2018-12-26T17:03:43.955Z,19.37
2018-12-26T17:06:13.020Z,18.93
2018-12-26T17:08:44.967Z,18.97
2018-12-26T17:11:15.332Z,21.63
2018-12-26T17:13:46.900Z,28.70
2018-12-26T17:16:15.800Z,21.50
2018-12-26T17:18:47.812Z,20.60
2018-12-26T17:21:19.429Z,20.20
2018-12-26T17:23:51.644Z,21.50
2018-12-26T17:26:20.537Z,20.43
2018-12-26T17:28:49.547Z,20.93
2018-12-26T17:31:24.816Z,21.40
2018-12-26T17:33:57.181Z,20.10
2018-12-26T17:36:28.866Z,20.93
2018-12-26T17:38:58.043Z,21.80
2018-12-26T17:41:29.705Z,20.83
2018-12-26T17:43:58.548Z,19.47
2018-12-26T17:46:27.484Z,20.70
2018-12-26T17:49:02.330Z,20.00
2018-12-26T17:51:31.314Z,22.80
2018-12-26T17:54:44.263Z,20.80
2018-12-26T17:57:28.055Z,20.60
2018-12-26T18:00:34.482Z,21.10
2018-12-26T18:03:06.154Z,18.67
2018-12-26T18:05:36.292Z,19.70
2018-12-26T18:08:08.261Z,19.37
2018-12-26T18:10:37.262Z,19.87
2018-12-26T18:13:09.814Z,19.83
2018-12-26T18:15:41.901Z,19.80
2018-12-26T18:18:17.339Z,20.53
2018-12-26T18:20:46.487Z,21.03
2018-12-26T18:23:18.360Z,18.53
2018-12-26T18:25:48.215Z,18.27
2018-12-26T18:28:23.229Z,17.43
2018-12-26T18:30:55.657Z,18.87
2018-12-26T18:33:25.325Z,19.10
2018-12-26T18:35:54.561Z,18.30
2018-12-26T18:38:23.725Z,18.97
2018-12-26T18:40:55.995Z,18.93
2018-12-26T18:43:24.993Z,19.57
2018-12-26T18:46:06.172Z,20.63
2018-12-26T18:48:35.089Z,19.47
2018-12-26T18:51:07.024Z,18.20
2018-12-26T18:53:38.681Z,20.03
2018-12-26T18:56:07.648Z,19.27
2018-12-26T18:58:36.980Z,19.53
2018-12-26T19:01:09.904Z,19.77
2018-12-26T19:03:38.797Z,19.07
2018-12-26T19:06:11.368Z,17.87
2018-12-26T19:08:40.557Z,16.70
2018-12-26T19:11:09.473Z,18.20
2018-12-26T19:13:38.649Z,19.13
2018-12-26T19:16:13.717Z,18.83
2018-12-26T19:18:57.742Z,19.90
2018-12-26T19:21:29.285Z,19.10
2018-12-26T19:23:58.140Z,19.60
2018-12-26T19:26:33.116Z,19.93
2018-12-26T19:29:08.031Z,17.80
2018-12-26T19:31:39.743Z,19.30
2018-12-26T19:34:07.822Z,19.70
2018-12-26T19:36:36.809Z,19.00
2018-12-26T19:39:07.436Z,19.13
2018-12-26T19:41:39.109Z,20.40
2018-12-26T20:17:08.387Z,18.27
2018-12-26T20:34:24.934Z,17.70
2018-12-26T21:24:19.513Z,17.63
2018-12-26T21:49:49.160Z,16.73
2018-12-26T21:52:46.618Z,17.27
2018-12-26T22:02:22.516Z,18.73
2018-12-26T22:15:29.979Z,17.47
2018-12-26T22:18:31.444Z,19.50
2018-12-26T22:21:15.823Z,19.47
2018-12-26T22:23:55.486Z,19.90
2018-12-26T22:39:03.585Z,18.57
2018-12-26T22:48:12.356Z,21.80
2018-12-26T23:07:39.612Z,19.83
2018-12-26T23:20:55.905Z,22.07
2018-12-26T23:23:43.296Z,22.90
2018-12-26T23:30:34.943Z,21.27
